sensor_id;sensor_type;location;lat;lon;timestamp;P1;durP1;ratioP1;P2;durP2;ratioP2
48516;SDS011;34310;51.904;4.256;2023-06-22T00:00:22;5.38;;;4.35;;
48516;SDS011;34310;51.904;4.256;2023-06-22T00:02:49;4.60;;;3.78;;
48516;SDS011;34310;51.904;4.256;2023-06-22T00:05:17;5.28;;;3.65;;
48516;SDS011;34310;51.904;4.256;2023-06-22T00:07:44;4.43;;;3.35;;
48516;SDS011;34310;51.904;4.256;2023-06-22T00:10:11;4.85;;;3.80;;
48516;SDS011;34310;51.904;4.256;2023-06-22T00:12:39;4.80;;;3.80;;
48516;SDS011;34310;51.904;4.256;2023-06-22T00:15:07;4.13;;;3.70;;
48516;SDS011;34310;51.904;4.256;2023-06-22T00:17:35;3.90;;;3.50;;
48516;SDS011;34310;51.904;4.256;2023-06-22T00:20:02;4.10;;;3.67;;
48516;SDS011;34310;51.904;4.256;2023-06-22T00:22:32;4.20;;;3.55;;
48516;SDS011;34310;51.904;4.256;2023-06-22T00:25:06;5.43;;;3.58;;
48516;SDS011;34310;51.904;4.256;2023-06-22T00:27:34;3.88;;;3.25;;
48516;SDS011;34310;51.904;4.256;2023-06-22T00:30:02;5.20;;;3.55;;
48516;SDS011;34310;51.904;4.256;2023-06-22T00:32:29;4.75;;;3.50;;
48516;SDS011;34310;51.904;4.256;2023-06-22T00:34:57;4.20;;;3.67;;
48516;SDS011;34310;51.904;4.256;2023-06-22T00:37:24;3.60;;;3.30;;
48516;SDS011;34310;51.904;4.256;2023-06-22T00:39:52;4.00;;;3.60;;
48516;SDS011;34310;51.904;4.256;2023-06-22T00:42:19;3.58;;;3.13;;
48516;SDS011;34310;51.904;4.256;2023-06-22T00:44:47;4.22;;;3.40;;
48516;SDS011;34310;51.904;4.256;2023-06-22T00:47:15;3.47;;;3.17;;
48516;SDS011;34310;51.904;4.256;2023-06-22T00:49:43;3.42;;;3.13;;
48516;SDS011;34310;51.904;4.256;2023-06-22T00:52:12;3.65;;;3.10;;
48516;SDS011;34310;51.904;4.256;2023-06-22T00:54:50;4.15;;;3.30;;
48516;SDS011;34310;51.904;4.256;2023-06-22T00:57:18;3.90;;;3.45;;
48516;SDS011;34310;51.904;4.256;2023-06-22T00:59:47;3.63;;;3.30;;
48516;SDS011;34310;51.904;4.256;2023-06-22T01:02:14;4.05;;;3.65;;
48516;SDS011;34310;51.904;4.256;2023-06-22T01:04:42;3.95;;;3.55;;
48516;SDS011;34310;51.904;4.256;2023-06-22T01:10:27;4.22;;;3.40;;
48516;SDS011;34310;51.904;4.256;2023-06-22T01:13:10;4.18;;;3.53;;
48516;SDS011;34310;51.904;4.256;2023-06-22T01:15:53;3.72;;;3.20;;
48516;SDS011;34310;51.904;4.256;2023-06-22T01:18:24;4.25;;;3.55;;
48516;SDS011;34310;51.904;4.256;2023-06-22T01:20:54;4.35;;;3.40;;
48516;SDS011;34310;51.904;4.256;2023-06-22T01:23:27;3.80;;;3.40;;
48516;SDS011;34310;51.904;4.256;2023-06-22T01:26:18;4.05;;;3.35;;
48516;SDS011;34310;51.904;4.256;2023-06-22T01:28:54;3.95;;;3.55;;
48516;SDS011;34310;51.904;4.256;2023-06-22T01:31:24;4.07;;;3.67;;
48516;SDS011;34310;51.904;4.256;2023-06-22T01:33:54;3.63;;;3.33;;
48516;SDS011;34310;51.904;4.256;2023-06-22T01:36:24;3.92;;;3.53;;
48516;SDS011;34310;51.904;4.256;2023-06-22T01:38:53;6.80;;;3.70;;
48516;SDS011;34310;51.904;4.256;2023-06-22T01:41:25;3.90;;;3.50;;
48516;SDS011;34310;51.904;4.256;2023-06-22T01:43:53;4.93;;;3.75;;
48516;SDS011;34310;51.904;4.256;2023-06-22T01:46:22;7.90;;;3.95;;
48516;SDS011;34310;51.904;4.256;2023-06-22T01:48:50;4.95;;;3.78;;
48516;SDS011;34310;51.904;4.256;2023-06-22T01:51:18;4.15;;;3.75;;
48516;SDS011;34310;51.904;4.256;2023-06-22T01:53:45;4.63;;;4.18;;
48516;SDS011;34310;51.904;4.256;2023-06-22T01:56:15;5.57;;;4.30;;
48516;SDS011;34310;51.904;4.256;2023-06-22T02:01:30;3.90;;;3.60;;
48516;SDS011;34310;51.904;4.256;2023-06-22T02:04:03;5.20;;;4.45;;
48516;SDS011;34310;51.904;4.256;2023-06-22T02:06:38;5.47;;;4.45;;
48516;SDS011;34310;51.904;4.256;2023-06-22T02:09:11;5.13;;;4.07;;
48516;SDS011;34310;51.904;4.256;2023-06-22T02:11:42;4.65;;;4.20;;
48516;SDS011;34310;51.904;4.256;2023-06-22T02:14:13;5.70;;;4.47;;
48516;SDS011;34310;51.904;4.256;2023-06-22T02:16:45;6.53;;;4.40;;
48516;SDS011;34310;51.904;4.256;2023-06-22T02:19:13;4.70;;;4.18;;
48516;SDS011;34310;51.904;4.256;2023-06-22T02:21:42;5.53;;;4.43;;
48516;SDS011;34310;51.904;4.256;2023-06-22T02:24:09;5.13;;;4.60;;
48516;SDS011;34310;51.904;4.256;2023-06-22T02:26:36;5.40;;;4.90;;
48516;SDS011;34310;51.904;4.256;2023-06-22T02:29:06;7.10;;;4.70;;
48516;SDS011;34310;51.904;4.256;2023-06-22T02:31:33;5.38;;;4.88;;
48516;SDS011;34310;51.904;4.256;2023-06-22T02:34:00;5.20;;;4.22;;
48516;SDS011;34310;51.904;4.256;2023-06-22T02:36:28;4.80;;;4.30;;
48516;SDS011;34310;51.904;4.256;2023-06-22T02:38:57;6.05;;;4.88;;
48516;SDS011;34310;51.904;4.256;2023-06-22T02:41:27;5.07;;;4.57;;
48516;SDS011;34310;51.904;4.256;2023-06-22T02:43:55;5.00;;;4.50;;
48516;SDS011;34310;51.904;4.256;2023-06-22T02:46:22;5.05;;;4.55;;
48516;SDS011;34310;51.904;4.256;2023-06-22T02:48:50;4.78;;;4.38;;
48516;SDS011;34310;51.904;4.256;2023-06-22T02:51:17;5.28;;;4.65;;
48516;SDS011;34310;51.904;4.256;2023-06-22T02:53:44;5.10;;;4.45;;
48516;SDS011;34310;51.904;4.256;2023-06-22T02:56:12;5.82;;;4.65;;
48516;SDS011;34310;51.904;4.256;2023-06-22T02:58:39;5.78;;;4.80;;
48516;SDS011;34310;51.904;4.256;2023-06-22T03:01:06;5.18;;;4.60;;
48516;SDS011;34310;51.904;4.256;2023-06-22T03:03:34;5.38;;;4.60;;
48516;SDS011;34310;51.904;4.256;2023-06-22T03:06:01;6.95;;;4.68;;
48516;SDS011;34310;51.904;4.256;2023-06-22T03:08:29;4.60;;;4.10;;
48516;SDS011;34310;51.904;4.256;2023-06-22T03:10:56;4.45;;;4.05;;
48516;SDS011;34310;51.904;4.256;2023-06-22T03:13:23;5.63;;;4.60;;
48516;SDS011;34310;51.904;4.256;2023-06-22T03:15:51;5.15;;;4.60;;
48516;SDS011;34310;51.904;4.256;2023-06-22T03:18:18;6.47;;;4.65;;
48516;SDS011;34310;51.904;4.256;2023-06-22T03:20:48;5.72;;;4.63;;
48516;SDS011;34310;51.904;4.256;2023-06-22T03:23:16;6.00;;;4.75;;
48516;SDS011;34310;51.904;4.256;2023-06-22T03:25:43;5.05;;;4.55;;
48516;SDS011;34310;51.904;4.256;2023-06-22T03:28:11;5.75;;;4.95;;
48516;SDS011;34310;51.904;4.256;2023-06-22T03:30:38;4.80;;;4.28;;
48516;SDS011;34310;51.904;4.256;2023-06-22T03:33:05;5.10;;;4.60;;
48516;SDS011;34310;51.904;4.256;2023-06-22T03:35:33;5.38;;;4.47;;
48516;SDS011;34310;51.904;4.256;2023-06-22T03:38:00;5.60;;;4.65;;
48516;SDS011;34310;51.904;4.256;2023-06-22T03:40:28;5.82;;;4.78;;
48516;SDS011;34310;51.904;4.256;2023-06-22T03:42:56;5.65;;;4.43;;
48516;SDS011;34310;51.904;4.256;2023-06-22T03:45:23;6.60;;;4.68;;
48516;SDS011;34310;51.904;4.256;2023-06-22T03:47:50;5.55;;;4.88;;
48516;SDS011;34310;51.904;4.256;2023-06-22T03:50:18;5.93;;;4.60;;
48516;SDS011;34310;51.904;4.256;2023-06-22T03:52:46;6.30;;;4.50;;
48516;SDS011;34310;51.904;4.256;2023-06-22T03:55:14;5.03;;;4.53;;
48516;SDS011;34310;51.904;4.256;2023-06-22T03:57:41;5.15;;;4.50;;
48516;SDS011;34310;51.904;4.256;2023-06-22T04:00:08;5.80;;;4.68;;
48516;SDS011;34310;51.904;4.256;2023-06-22T04:02:36;5.20;;;4.60;;
48516;SDS011;34310;51.904;4.256;2023-06-22T04:05:05;4.95;;;4.45;;
48516;SDS011;34310;51.904;4.256;2023-06-22T04:07:33;5.07;;;4.18;;
48516;SDS011;34310;51.904;4.256;2023-06-22T04:10:00;5.35;;;4.65;;
48516;SDS011;34310;51.904;4.256;2023-06-22T04:12:27;5.70;;;4.40;;
48516;SDS011;34310;51.904;4.256;2023-06-22T04:14:55;5.75;;;4.75;;
48516;SDS011;34310;51.904;4.256;2023-06-22T04:17:22;5.88;;;4.82;;
48516;SDS011;34310;51.904;4.256;2023-06-22T04:19:51;5.65;;;4.45;;
48516;SDS011;34310;51.904;4.256;2023-06-22T04:22:18;6.57;;;4.82;;
48516;SDS011;34310;51.904;4.256;2023-06-22T04:24:46;5.43;;;4.93;;
48516;SDS011;34310;51.904;4.256;2023-06-22T04:27:13;6.22;;;4.80;;
48516;SDS011;34310;51.904;4.256;2023-06-22T04:29:41;5.22;;;4.72;;
48516;SDS011;34310;51.904;4.256;2023-06-22T04:34:42;5.55;;;4.75;;
48516;SDS011;34310;51.904;4.256;2023-06-22T04:37:10;5.20;;;4.60;;
48516;SDS011;34310;51.904;4.256;2023-06-22T04:39:42;7.47;;;4.90;;
48516;SDS011;34310;51.904;4.256;2023-06-22T04:42:10;4.85;;;4.35;;
48516;SDS011;34310;51.904;4.256;2023-06-22T04:44:37;4.55;;;4.10;;
48516;SDS011;34310;51.904;4.256;2023-06-22T04:47:06;6.72;;;4.30;;
48516;SDS011;34310;51.904;4.256;2023-06-22T04:49:35;7.05;;;4.60;;
48516;SDS011;34310;51.904;4.256;2023-06-22T04:52:04;5.18;;;4.53;;
48516;SDS011;34310;51.904;4.256;2023-06-22T04:54:33;5.22;;;4.60;;
48516;SDS011;34310;51.904;4.256;2023-06-22T04:57:03;4.80;;;4.22;;
48516;SDS011;34310;51.904;4.256;2023-06-22T04:59:37;5.00;;;4.43;;
48516;SDS011;34310;51.904;4.256;2023-06-22T05:02:05;4.90;;;4.40;;
48516;SDS011;34310;51.904;4.256;2023-06-22T05:04:33;4.60;;;4.10;;
48516;SDS011;34310;51.904;4.256;2023-06-22T05:07:02;5.75;;;4.80;;
48516;SDS011;34310;51.904;4.256;2023-06-22T05:09:30;5.05;;;4.55;;
48516;SDS011;34310;51.904;4.256;2023-06-22T05:12:00;5.47;;;4.53;;
48516;SDS011;34310;51.904;4.256;2023-06-22T05:14:29;5.50;;;4.53;;
48516;SDS011;34310;51.904;4.256;2023-06-22T05:16:56;5.82;;;4.35;;
48516;SDS011;34310;51.904;4.256;2023-06-22T05:19:30;4.93;;;4.20;;
48516;SDS011;34310;51.904;4.256;2023-06-22T05:22:00;4.72;;;4.20;;
48516;SDS011;34310;51.904;4.256;2023-06-22T05:24:27;6.97;;;4.68;;
48516;SDS011;34310;51.904;4.256;2023-06-22T05:26:55;4.68;;;4.00;;
48516;SDS011;34310;51.904;4.256;2023-06-22T05:29:22;4.97;;;4.30;;
48516;SDS011;34310;51.904;4.256;2023-06-22T05:31:49;5.00;;;3.80;;
48516;SDS011;34310;51.904;4.256;2023-06-22T05:34:17;5.53;;;4.20;;
48516;SDS011;34310;51.904;4.256;2023-06-22T05:36:44;5.63;;;4.10;;
48516;SDS011;34310;51.904;4.256;2023-06-22T05:39:12;4.13;;;3.72;;
48516;SDS011;34310;51.904;4.256;2023-06-22T05:41:41;4.53;;;4.13;;
48516;SDS011;34310;51.904;4.256;2023-06-22T05:44:11;5.03;;;4.15;;
48516;SDS011;34310;51.904;4.256;2023-06-22T05:46:40;4.50;;;4.05;;
48516;SDS011;34310;51.904;4.256;2023-06-22T05:49:11;4.45;;;4.05;;
48516;SDS011;34310;51.904;4.256;2023-06-22T05:51:39;4.35;;;3.95;;
48516;SDS011;34310;51.904;4.256;2023-06-22T05:54:07;6.05;;;4.35;;
48516;SDS011;34310;51.904;4.256;2023-06-22T05:56:35;8.35;;;4.53;;
48516;SDS011;34310;51.904;4.256;2023-06-22T05:59:02;4.60;;;4.18;;
48516;SDS011;34310;51.904;4.256;2023-06-22T06:01:30;5.10;;;4.30;;
48516;SDS011;34310;51.904;4.256;2023-06-22T06:04:01;6.32;;;4.18;;
48516;SDS011;34310;51.904;4.256;2023-06-22T06:06:30;7.32;;;4.90;;
48516;SDS011;34310;51.904;4.256;2023-06-22T06:08:58;9.32;;;5.40;;
48516;SDS011;34310;51.904;4.256;2023-06-22T06:11:26;11.05;;;5.65;;
48516;SDS011;34310;51.904;4.256;2023-06-22T06:13:53;13.18;;;6.15;;
48516;SDS011;34310;51.904;4.256;2023-06-22T06:16:21;10.65;;;6.35;;
48516;SDS011;34310;51.904;4.256;2023-06-22T06:18:49;11.82;;;6.68;;
48516;SDS011;34310;51.904;4.256;2023-06-22T06:21:17;11.90;;;6.65;;
48516;SDS011;34310;51.904;4.256;2023-06-22T06:23:44;11.25;;;6.65;;
48516;SDS011;34310;51.904;4.256;2023-06-22T06:26:11;10.15;;;6.40;;
48516;SDS011;34310;51.904;4.256;2023-06-22T06:28:39;12.15;;;6.53;;
48516;SDS011;34310;51.904;4.256;2023-06-22T06:31:07;10.35;;;5.85;;
48516;SDS011;34310;51.904;4.256;2023-06-22T06:33:35;11.75;;;5.90;;
48516;SDS011;34310;51.904;4.256;2023-06-22T06:36:03;13.77;;;6.32;;
48516;SDS011;34310;51.904;4.256;2023-06-22T06:38:30;10.65;;;5.95;;
48516;SDS011;34310;51.904;4.256;2023-06-22T06:40:58;11.60;;;5.70;;
48516;SDS011;34310;51.904;4.256;2023-06-22T06:43:26;10.18;;;5.68;;
48516;SDS011;34310;51.904;4.256;2023-06-22T06:45:53;11.60;;;5.78;;
48516;SDS011;34310;51.904;4.256;2023-06-22T06:48:20;10.52;;;5.53;;
48516;SDS011;34310;51.904;4.256;2023-06-22T06:50:48;10.00;;;5.18;;
48516;SDS011;34310;51.904;4.256;2023-06-22T06:53:16;11.73;;;5.28;;
48516;SDS011;34310;51.904;4.256;2023-06-22T06:55:43;9.40;;;5.43;;
48516;SDS011;34310;51.904;4.256;2023-06-22T06:58:12;7.85;;;5.03;;
48516;SDS011;34310;51.904;4.256;2023-06-22T07:00:39;10.00;;;5.80;;
48516;SDS011;34310;51.904;4.256;2023-06-22T07:03:07;8.18;;;5.28;;
48516;SDS011;34310;51.904;4.256;2023-06-22T07:05:34;9.20;;;4.75;;
48516;SDS011;34310;51.904;4.256;2023-06-22T07:08:02;8.20;;;4.55;;
48516;SDS011;34310;51.904;4.256;2023-06-22T07:10:29;8.30;;;4.88;;
48516;SDS011;34310;51.904;4.256;2023-06-22T07:12:57;7.43;;;4.88;;
48516;SDS011;34310;51.904;4.256;2023-06-22T07:15:24;7.45;;;4.40;;
48516;SDS011;34310;51.904;4.256;2023-06-22T07:17:52;7.95;;;4.82;;
48516;SDS011;34310;51.904;4.256;2023-06-22T07:20:19;7.05;;;4.55;;
48516;SDS011;34310;51.904;4.256;2023-06-22T07:22:46;5.88;;;4.20;;
48516;SDS011;34310;51.904;4.256;2023-06-22T07:25:14;7.50;;;4.60;;
48516;SDS011;34310;51.904;4.256;2023-06-22T07:28:01;6.30;;;4.15;;
48516;SDS011;34310;51.904;4.256;2023-06-22T07:30:31;8.23;;;4.38;;
48516;SDS011;34310;51.904;4.256;2023-06-22T07:33:00;7.30;;;4.43;;
48516;SDS011;34310;51.904;4.256;2023-06-22T07:35:35;6.28;;;3.83;;
48516;SDS011;34310;51.904;4.256;2023-06-22T07:38:02;6.35;;;4.00;;
48516;SDS011;34310;51.904;4.256;2023-06-22T07:40:31;4.65;;;3.60;;
48516;SDS011;34310;51.904;4.256;2023-06-22T07:43:00;4.63;;;3.40;;
48516;SDS011;34310;51.904;4.256;2023-06-22T07:45:28;5.55;;;3.70;;
48516;SDS011;34310;51.904;4.256;2023-06-22T07:47:56;4.80;;;3.80;;
48516;SDS011;34310;51.904;4.256;2023-06-22T07:50:23;4.53;;;3.35;;
48516;SDS011;34310;51.904;4.256;2023-06-22T07:52:51;4.88;;;3.50;;
48516;SDS011;34310;51.904;4.256;2023-06-22T07:55:19;5.65;;;3.80;;
48516;SDS011;34310;51.904;4.256;2023-06-22T07:57:46;4.43;;;3.40;;
48516;SDS011;34310;51.904;4.256;2023-06-22T08:00:15;4.85;;;3.38;;
48516;SDS011;34310;51.904;4.256;2023-06-22T08:02:44;4.95;;;3.30;;
48516;SDS011;34310;51.904;4.256;2023-06-22T08:05:14;5.65;;;3.20;;
48516;SDS011;34310;51.904;4.256;2023-06-22T08:07:48;4.35;;;3.05;;
48516;SDS011;34310;51.904;4.256;2023-06-22T08:10:16;4.13;;;3.10;;
48516;SDS011;34310;51.904;4.256;2023-06-22T08:12:45;3.97;;;2.90;;
48516;SDS011;34310;51.904;4.256;2023-06-22T08:15:13;5.03;;;2.90;;
48516;SDS011;34310;51.904;4.256;2023-06-22T08:17:40;4.45;;;3.10;;
48516;SDS011;34310;51.904;4.256;2023-06-22T08:20:08;4.28;;;2.97;;
48516;SDS011;34310;51.904;4.256;2023-06-22T08:22:36;3.85;;;2.83;;
48516;SDS011;34310;51.904;4.256;2023-06-22T08:25:04;3.28;;;2.45;;
48516;SDS011;34310;51.904;4.256;2023-06-22T08:27:32;5.38;;;2.80;;
48516;SDS011;34310;51.904;4.256;2023-06-22T08:30:00;3.38;;;2.40;;
48516;SDS011;34310;51.904;4.256;2023-06-22T08:32:28;3.75;;;2.80;;
48516;SDS011;34310;51.904;4.256;2023-06-22T08:34:56;3.15;;;2.45;;
48516;SDS011;34310;51.904;4.256;2023-06-22T08:37:24;3.75;;;2.45;;
48516;SDS011;34310;51.904;4.256;2023-06-22T08:39:58;3.58;;;2.40;;
48516;SDS011;34310;51.904;4.256;2023-06-22T08:42:34;2.83;;;2.30;;
48516;SDS011;34310;51.904;4.256;2023-06-22T08:45:02;3.33;;;2.30;;
48516;SDS011;34310;51.904;4.256;2023-06-22T08:47:30;3.72;;;2.30;;
48516;SDS011;34310;51.904;4.256;2023-06-22T08:49:58;2.80;;;2.22;;
48516;SDS011;34310;51.904;4.256;2023-06-22T08:52:25;3.05;;;2.30;;
48516;SDS011;34310;51.904;4.256;2023-06-22T08:54:53;3.47;;;2.50;;
48516;SDS011;34310;51.904;4.256;2023-06-22T08:57:20;2.63;;;2.10;;
48516;SDS011;34310;51.904;4.256;2023-06-22T08:59:48;3.25;;;2.17;;
48516;SDS011;34310;51.904;4.256;2023-06-22T09:02:18;2.78;;;2.20;;
48516;SDS011;34310;51.904;4.256;2023-06-22T09:04:46;2.72;;;2.00;;
48516;SDS011;34310;51.904;4.256;2023-06-22T09:07:15;2.63;;;1.98;;
48516;SDS011;34310;51.904;4.256;2023-06-22T09:09:49;2.93;;;2.30;;
48516;SDS011;34310;51.904;4.256;2023-06-22T09:12:17;2.00;;;1.80;;
48516;SDS011;34310;51.904;4.256;2023-06-22T09:14:46;2.30;;;1.83;;
48516;SDS011;34310;51.904;4.256;2023-06-22T09:17:13;2.30;;;1.83;;
48516;SDS011;34310;51.904;4.256;2023-06-22T09:19:41;2.63;;;2.10;;
48516;SDS011;34310;51.904;4.256;2023-06-22T09:22:08;2.67;;;2.00;;
48516;SDS011;34310;51.904;4.256;2023-06-22T09:24:35;2.10;;;1.90;;
48516;SDS011;34310;51.904;4.256;2023-06-22T09:27:03;2.88;;;1.80;;
48516;SDS011;34310;51.904;4.256;2023-06-22T09:29:30;2.55;;;2.00;;
48516;SDS011;34310;51.904;4.256;2023-06-22T09:32:01;2.20;;;2.00;;
48516;SDS011;34310;51.904;4.256;2023-06-22T09:34:29;2.70;;;1.90;;
48516;SDS011;34310;51.904;4.256;2023-06-22T09:36:57;3.03;;;2.30;;
48516;SDS011;34310;51.904;4.256;2023-06-22T09:39:27;2.08;;;1.63;;
48516;SDS011;34310;51.904;4.256;2023-06-22T09:41:54;2.40;;;1.90;;
48516;SDS011;34310;51.904;4.256;2023-06-22T09:44:21;2.05;;;1.73;;
48516;SDS011;34310;51.904;4.256;2023-06-22T09:46:49;3.22;;;2.03;;
48516;SDS011;34310;51.904;4.256;2023-06-22T09:49:16;3.15;;;2.00;;
48516;SDS011;34310;51.904;4.256;2023-06-22T09:51:53;1.90;;;1.75;;
48516;SDS011;34310;51.904;4.256;2023-06-22T09:54:20;1.98;;;1.75;;
48516;SDS011;34310;51.904;4.256;2023-06-22T09:56:47;2.00;;;1.80;;
48516;SDS011;34310;51.904;4.256;2023-06-22T09:59:15;1.92;;;1.70;;
48516;SDS011;34310;51.904;4.256;2023-06-22T10:01:44;2.05;;;1.73;;
48516;SDS011;34310;51.904;4.256;2023-06-22T10:04:11;2.35;;;1.90;;
48516;SDS011;34310;51.904;4.256;2023-06-22T10:06:39;2.03;;;1.83;;
48516;SDS011;34310;51.904;4.256;2023-06-22T10:09:07;2.15;;;1.83;;
48516;SDS011;34310;51.904;4.256;2023-06-22T10:11:35;2.05;;;1.70;;
48516;SDS011;34310;51.904;4.256;2023-06-22T10:14:03;2.30;;;2.10;;
48516;SDS011;34310;51.904;4.256;2023-06-22T10:16:31;2.22;;;1.67;;
48516;SDS011;34310;51.904;4.256;2023-06-22T10:18:59;1.90;;;1.70;;
48516;SDS011;34310;51.904;4.256;2023-06-22T10:21:27;1.73;;;1.63;;
48516;SDS011;34310;51.904;4.256;2023-06-22T10:23:55;2.10;;;1.90;;
48516;SDS011;34310;51.904;4.256;2023-06-22T10:26:22;2.10;;;1.90;;
48516;SDS011;34310;51.904;4.256;2023-06-22T10:28:49;2.08;;;1.88;;
48516;SDS011;34310;51.904;4.256;2023-06-22T10:31:36;2.20;;;2.00;;
48516;SDS011;34310;51.904;4.256;2023-06-22T10:34:04;2.28;;;1.83;;
48516;SDS011;34310;51.904;4.256;2023-06-22T10:36:31;2.22;;;2.03;;
48516;SDS011;34310;51.904;4.256;2023-06-22T10:38:58;1.90;;;1.80;;
48516;SDS011;34310;51.904;4.256;2023-06-22T10:41:27;2.58;;;2.10;;
48516;SDS011;34310;51.904;4.256;2023-06-22T10:43:58;2.10;;;1.90;;
48516;SDS011;34310;51.904;4.256;2023-06-22T10:46:25;2.35;;;2.15;;
48516;SDS011;34310;51.904;4.256;2023-06-22T10:48:54;2.50;;;2.22;;
48516;SDS011;34310;51.904;4.256;2023-06-22T10:51:23;2.45;;;2.22;;
48516;SDS011;34310;51.904;4.256;2023-06-22T10:53:52;2.38;;;1.95;;
48516;SDS011;34310;51.904;4.256;2023-06-22T10:56:19;3.40;;;2.30;;
48516;SDS011;34310;51.904;4.256;2023-06-22T10:58:46;2.75;;;2.40;;
48516;SDS011;34310;51.904;4.256;2023-06-22T11:01:14;2.90;;;2.40;;
48516;SDS011;34310;51.904;4.256;2023-06-22T11:04:00;3.15;;;2.53;;
48516;SDS011;34310;51.904;4.256;2023-06-22T11:06:28;2.88;;;2.50;;
48516;SDS011;34310;51.904;4.256;2023-06-22T11:08:55;3.53;;;2.70;;
48516;SDS011;34310;51.904;4.256;2023-06-22T11:11:42;4.10;;;2.50;;
48516;SDS011;34310;51.904;4.256;2023-06-22T11:14:09;3.78;;;2.50;;
48516;SDS011;34310;51.904;4.256;2023-06-22T11:16:37;2.75;;;2.55;;
48516;SDS011;34310;51.904;4.256;2023-06-22T11:19:05;3.38;;;2.95;;
48516;SDS011;34310;51.904;4.256;2023-06-22T11:21:32;3.28;;;2.97;;
48516;SDS011;34310;51.904;4.256;2023-06-22T11:24:00;3.10;;;2.80;;
48516;SDS011;34310;51.904;4.256;2023-06-22T11:26:27;3.13;;;2.83;;
48516;SDS011;34310;51.904;4.256;2023-06-22T11:28:55;3.22;;;2.92;;
48516;SDS011;34310;51.904;4.256;2023-06-22T11:31:22;3.33;;;3.03;;
48516;SDS011;34310;51.904;4.256;2023-06-22T11:33:52;3.47;;;3.17;;
48516;SDS011;34310;51.904;4.256;2023-06-22T11:36:19;3.58;;;3.25;;
48516;SDS011;34310;51.904;4.256;2023-06-22T11:38:47;3.70;;;3.40;;
48516;SDS011;34310;51.904;4.256;2023-06-22T11:41:14;2.78;;;2.58;;
48516;SDS011;34310;51.904;4.256;2023-06-22T11:43:42;3.60;;;3.30;;
48516;SDS011;34310;51.904;4.256;2023-06-22T11:46:10;4.07;;;3.67;;
48516;SDS011;34310;51.904;4.256;2023-06-22T11:48:37;3.63;;;3.13;;
48516;SDS011;34310;51.904;4.256;2023-06-22T11:51:05;3.35;;;3.05;;
48516;SDS011;34310;51.904;4.256;2023-06-22T11:53:34;3.80;;;3.38;;
48516;SDS011;34310;51.904;4.256;2023-06-22T11:56:02;5.00;;;3.63;;
48516;SDS011;34310;51.904;4.256;2023-06-22T11:58:29;4.97;;;3.80;;
48516;SDS011;34310;51.904;4.256;2023-06-22T12:00:56;3.90;;;3.50;;
48516;SDS011;34310;51.904;4.256;2023-06-22T12:03:24;3.53;;;3.20;;
48516;SDS011;34310;51.904;4.256;2023-06-22T12:05:51;3.88;;;3.33;;
48516;SDS011;34310;51.904;4.256;2023-06-22T12:08:19;3.97;;;3.40;;
48516;SDS011;34310;51.904;4.256;2023-06-22T12:10:46;3.47;;;3.17;;
48516;SDS011;34310;51.904;4.256;2023-06-22T12:13:14;3.85;;;3.45;;
48516;SDS011;34310;51.904;4.256;2023-06-22T12:15:42;4.05;;;3.65;;
48516;SDS011;34310;51.904;4.256;2023-06-22T12:18:09;5.45;;;3.75;;
48516;SDS011;34310;51.904;4.256;2023-06-22T12:20:37;4.13;;;3.75;;
48516;SDS011;34310;51.904;4.256;2023-06-22T12:23:04;3.90;;;3.60;;
48516;SDS011;34310;51.904;4.256;2023-06-22T12:25:32;4.15;;;3.75;;
48516;SDS011;34310;51.904;4.256;2023-06-22T12:27:59;4.45;;;4.03;;
48516;SDS011;34310;51.904;4.256;2023-06-22T12:30:26;4.03;;;3.70;;
48516;SDS011;34310;51.904;4.256;2023-06-22T12:32:54;4.60;;;4.00;;
48516;SDS011;34310;51.904;4.256;2023-06-22T12:35:22;4.60;;;3.90;;
48516;SDS011;34310;51.904;4.256;2023-06-22T12:37:50;4.45;;;4.05;;
48516;SDS011;34310;51.904;4.256;2023-06-22T12:40:17;4.35;;;3.90;;
48516;SDS011;34310;51.904;4.256;2023-06-22T12:42:45;4.35;;;3.95;;
48516;SDS011;34310;51.904;4.256;2023-06-22T12:45:12;4.28;;;3.88;;
48516;SDS011;34310;51.904;4.256;2023-06-22T12:47:40;4.38;;;3.97;;
48516;SDS011;34310;51.904;4.256;2023-06-22T12:50:07;4.30;;;3.90;;
48516;SDS011;34310;51.904;4.256;2023-06-22T12:52:36;4.90;;;3.85;;
48516;SDS011;34310;51.904;4.256;2023-06-22T12:55:07;4.07;;;3.67;;
48516;SDS011;34310;51.904;4.256;2023-06-22T12:57:35;4.65;;;3.80;;
48516;SDS011;34310;51.904;4.256;2023-06-22T13:00:02;4.68;;;4.05;;
48516;SDS011;34310;51.904;4.256;2023-06-22T13:02:31;4.63;;;4.10;;
48516;SDS011;34310;51.904;4.256;2023-06-22T13:04:58;5.18;;;4.47;;
48516;SDS011;34310;51.904;4.256;2023-06-22T13:07:26;4.30;;;3.90;;
48516;SDS011;34310;51.904;4.256;2023-06-22T13:09:53;4.32;;;3.92;;
48516;SDS011;34310;51.904;4.256;2023-06-22T13:12:21;4.90;;;4.40;;
48516;SDS011;34310;51.904;4.256;2023-06-22T13:14:49;4.45;;;3.95;;
48516;SDS011;34310;51.904;4.256;2023-06-22T13:17:16;4.35;;;3.92;;
48516;SDS011;34310;51.904;4.256;2023-06-22T13:19:44;4.68;;;4.13;;
48516;SDS011;34310;51.904;4.256;2023-06-22T13:22:28;4.10;;;3.70;;
48516;SDS011;34310;51.904;4.256;2023-06-22T13:24:56;4.60;;;4.20;;
48516;SDS011;34310;51.904;4.256;2023-06-22T13:27:24;4.57;;;4.18;;
48516;SDS011;34310;51.904;4.256;2023-06-22T13:29:51;4.78;;;4.28;;
48516;SDS011;34310;51.904;4.256;2023-06-22T13:32:19;4.35;;;3.95;;
48516;SDS011;34310;51.904;4.256;2023-06-22T13:34:47;4.78;;;4.28;;
48516;SDS011;34310;51.904;4.256;2023-06-22T13:37:14;3.80;;;3.50;;
48516;SDS011;34310;51.904;4.256;2023-06-22T13:39:41;4.55;;;4.10;;
48516;SDS011;34310;51.904;4.256;2023-06-22T13:42:09;4.35;;;3.70;;
48516;SDS011;34310;51.904;4.256;2023-06-22T13:44:36;4.15;;;3.63;;
48516;SDS011;34310;51.904;4.256;2023-06-22T13:47:05;4.10;;;3.70;;
48516;SDS011;34310;51.904;4.256;2023-06-22T13:49:33;4.13;;;3.72;;
48516;SDS011;34310;51.904;4.256;2023-06-22T13:52:00;4.60;;;4.13;;
48516;SDS011;34310;51.904;4.256;2023-06-22T13:54:29;3.67;;;3.38;;
48516;SDS011;34310;51.904;4.256;2023-06-22T13:56:59;4.05;;;3.65;;
48516;SDS011;34310;51.904;4.256;2023-06-22T13:59:27;4.05;;;3.65;;
48516;SDS011;34310;51.904;4.256;2023-06-22T14:01:54;4.18;;;3.78;;
48516;SDS011;34310;51.904;4.256;2023-06-22T14:04:25;4.15;;;3.50;;
48516;SDS011;34310;51.904;4.256;2023-06-22T14:06:53;4.22;;;3.72;;
48516;SDS011;34310;51.904;4.256;2023-06-22T14:09:23;4.20;;;3.80;;
48516;SDS011;34310;51.904;4.256;2023-06-22T14:11:50;4.18;;;3.78;;
48516;SDS011;34310;51.904;4.256;2023-06-22T14:14:20;4.25;;;3.65;;
48516;SDS011;34310;51.904;4.256;2023-06-22T14:16:47;4.07;;;3.67;;
48516;SDS011;34310;51.904;4.256;2023-06-22T14:19:19;4.20;;;3.80;;
48516;SDS011;34310;51.904;4.256;2023-06-22T14:21:46;4.13;;;3.72;;
48516;SDS011;34310;51.904;4.256;2023-06-22T14:24:14;4.03;;;3.63;;
48516;SDS011;34310;51.904;4.256;2023-06-22T14:26:41;3.88;;;3.58;;
48516;SDS011;34310;51.904;4.256;2023-06-22T14:29:08;3.70;;;3.40;;
48516;SDS011;34310;51.904;4.256;2023-06-22T14:31:36;4.25;;;3.80;;
48516;SDS011;34310;51.904;4.256;2023-06-22T14:34:03;4.38;;;3.97;;
48516;SDS011;34310;51.904;4.256;2023-06-22T14:36:32;4.40;;;3.75;;
48516;SDS011;34310;51.904;4.256;2023-06-22T14:38:59;3.92;;;3.60;;
48516;SDS011;34310;51.904;4.256;2023-06-22T14:41:26;4.60;;;4.00;;
48516;SDS011;34310;51.904;4.256;2023-06-22T14:43:55;4.35;;;3.90;;
48516;SDS011;34310;51.904;4.256;2023-06-22T14:46:22;4.43;;;4.03;;
48516;SDS011;34310;51.904;4.256;2023-06-22T14:48:50;3.90;;;3.60;;
48516;SDS011;34310;51.904;4.256;2023-06-22T14:51:17;4.07;;;3.58;;
48516;SDS011;34310;51.904;4.256;2023-06-22T14:53:45;4.40;;;4.00;;
48516;SDS011;34310;51.904;4.256;2023-06-22T14:56:13;4.18;;;3.47;;
48516;SDS011;34310;51.904;4.256;2023-06-22T14:58:42;4.18;;;3.70;;
48516;SDS011;34310;51.904;4.256;2023-06-22T15:01:13;4.20;;;3.80;;
48516;SDS011;34310;51.904;4.256;2023-06-22T15:03:44;4.18;;;3.78;;